createdAt,value
2023-01-06T00:00:23.147Z,55.96
2023-01-06T00:02:49.819Z,55.64
2023-01-06T00:05:16.510Z,55.49
2023-01-06T00:07:44.227Z,55.72
2023-01-06T00:10:11.610Z,55.67
2023-01-06T00:12:38.194Z,55.83
2023-01-06T00:15:05.078Z,55.76
2023-01-06T00:17:31.760Z,55.83
2023-01-06T00:19:58.563Z,56.14
2023-01-06T00:22:25.155Z,56.24
2023-01-06T00:24:51.776Z,56.68
2023-01-06T00:27:18.398Z,56.62
2023-01-06T00:29:45.972Z,56.74
2023-01-06T00:32:12.591Z,56.98
2023-01-06T00:34:39.173Z,56.54
2023-01-06T00:37:06.243Z,56.63
2023-01-06T00:39:32.855Z,56.16
2023-01-06T00:42:05.959Z,56.77
2023-01-06T00:44:36.731Z,56.57
2023-01-06T00:47:04.157Z,56.60
2023-01-06T00:49:30.837Z,56.73
2023-01-06T00:51:57.452Z,56.68
2023-01-06T00:54:24.196Z,56.48
2023-01-06T00:56:51.713Z,56.54
2023-01-06T00:59:22.495Z,56.50
2023-01-06T01:01:51.133Z,56.55
2023-01-06T01:04:18.380Z,56.42
2023-01-06T01:06:45.840Z,56.53
2023-01-06T01:09:14.150Z,57.82
2023-01-06T01:11:59.510Z,56.85
2023-01-06T01:14:26.179Z,56.79
2023-01-06T01:16:52.731Z,56.61
2023-01-06T01:19:20.794Z,56.63
2023-01-06T01:21:47.567Z,56.65
2023-01-06T01:24:14.192Z,56.55
2023-01-06T01:26:40.839Z,56.57
2023-01-06T01:29:07.509Z,56.32
2023-01-06T01:31:34.108Z,56.86
2023-01-06T01:34:02.062Z,56.47
2023-01-06T01:36:28.676Z,56.47
2023-01-06T01:38:58.402Z,56.44
2023-01-06T01:41:26.011Z,56.96
2023-01-06T01:43:57.238Z,56.83
2023-01-06T01:46:28.345Z,56.83
2023-01-06T01:48:56.679Z,56.88
2023-01-06T01:51:25.119Z,56.90
2023-01-06T01:53:52.987Z,56.89
2023-01-06T01:56:22.391Z,56.72
2023-01-06T01:58:57.681Z,56.36
2023-01-06T02:01:24.718Z,56.87
2023-01-06T02:03:51.843Z,56.83
2023-01-06T02:06:21.217Z,57.21
2023-01-06T02:09:00.878Z,57.25
2023-01-06T02:11:29.383Z,57.73
2023-01-06T02:14:01.435Z,57.82
2023-01-06T02:16:34.594Z,57.88
2023-01-06T02:19:03.966Z,57.96
2023-01-06T02:21:41.854Z,58.23
2023-01-06T02:24:17.437Z,58.11
2023-01-06T02:26:53.971Z,58.22
2023-01-06T02:29:39.181Z,58.58
2023-01-06T02:32:36.038Z,58.33
2023-01-06T02:35:18.158Z,58.19
2023-01-06T02:37:53.620Z,58.42
2023-01-06T02:40:23.623Z,58.19
2023-01-06T02:43:21.108Z,58.70
2023-01-06T02:46:08.262Z,58.96
2023-01-06T02:48:35.594Z,58.34
2023-01-06T02:51:05.339Z,58.53
2023-01-06T02:53:39.482Z,58.68
2023-01-06T02:56:07.134Z,59.30
2023-01-06T02:58:33.693Z,58.52
2023-01-06T03:01:11.107Z,58.54
2023-01-06T03:03:39.812Z,58.60
2023-01-06T03:06:13.798Z,59.30
2023-01-06T03:08:41.441Z,59.03
2023-01-06T03:11:10.066Z,59.38
2023-01-06T03:13:49.047Z,59.40
2023-01-06T03:16:17.067Z,59.53
2023-01-06T03:18:46.123Z,59.82
2023-01-06T03:21:21.704Z,59.71
2023-01-06T03:23:48.501Z,59.79
2023-01-06T03:26:15.422Z,60.13
2023-01-06T03:28:43.886Z,61.49
2023-01-06T03:31:14.660Z,61.42
2023-01-06T03:33:54.182Z,61.39
2023-01-06T03:36:29.898Z,62.22
2023-01-06T03:39:02.824Z,61.92
2023-01-06T03:41:53.105Z,62.00
2023-01-06T03:44:26.549Z,62.29
2023-01-06T03:47:00.082Z,62.27
2023-01-06T03:49:38.813Z,62.24
2023-01-06T03:52:12.217Z,62.21
2023-01-06T03:54:58.295Z,62.38
2023-01-06T03:57:27.616Z,62.94
2023-01-06T03:59:57.343Z,62.43
2023-01-06T04:02:24.944Z,62.23
2023-01-06T04:05:03.210Z,62.60
2023-01-06T04:07:30.515Z,62.90
2023-01-06T04:09:57.295Z,63.03
2023-01-06T04:12:39.221Z,62.58
2023-01-06T04:15:09.029Z,62.96
2023-01-06T04:17:36.272Z,63.19
2023-01-06T04:20:03.780Z,63.02
2023-01-06T04:22:30.694Z,63.49
2023-01-06T04:24:58.151Z,63.22
2023-01-06T04:27:24.844Z,62.83
2023-01-06T04:29:51.526Z,62.75
2023-01-06T04:32:18.264Z,62.96
2023-01-06T04:34:45.163Z,63.23
2023-01-06T04:37:13.072Z,63.81
2023-01-06T04:39:39.692Z,63.62
2023-01-06T04:42:06.385Z,63.58
2023-01-06T04:44:33.010Z,63.85
2023-01-06T04:46:59.600Z,63.11
2023-01-06T04:49:26.321Z,62.97
2023-01-06T04:51:52.879Z,62.96
2023-01-06T04:54:19.507Z,63.10
2023-01-06T04:56:46.077Z,63.06
2023-01-06T04:59:12.730Z,63.13
2023-01-06T05:01:39.428Z,63.64
2023-01-06T05:04:09.028Z,63.50
2023-01-06T05:06:35.890Z,63.49
2023-01-06T05:09:02.471Z,62.62
2023-01-06T05:11:29.111Z,62.61
2023-01-06T05:13:55.652Z,62.89
2023-01-06T05:16:27.129Z,62.58
2023-01-06T05:18:54.141Z,62.67
2023-01-06T05:21:21.281Z,63.04
2023-01-06T05:23:48.009Z,63.34
2023-01-06T05:26:18.578Z,62.86
2023-01-06T05:28:45.287Z,63.01
2023-01-06T05:31:12.272Z,62.94
2023-01-06T05:33:39.304Z,62.61
2023-01-06T05:36:08.128Z,63.26
2023-01-06T05:38:34.825Z,63.29
2023-01-06T05:41:01.824Z,63.42
2023-01-06T05:43:28.806Z,63.34
2023-01-06T05:45:55.819Z,63.67
2023-01-06T05:48:26.580Z,63.24
2023-01-06T05:50:53.494Z,63.12
2023-01-06T05:53:20.170Z,63.44
2023-01-06T05:55:46.860Z,63.26
2023-01-06T05:58:13.396Z,65.56
2023-01-06T06:00:40.044Z,64.02
2023-01-06T06:03:06.666Z,63.99
2023-01-06T06:05:33.266Z,64.02
2023-01-06T06:07:59.874Z,64.68
2023-01-06T06:10:26.551Z,65.01
2023-01-06T06:12:53.117Z,64.29
2023-01-06T06:15:19.912Z,64.88
2023-01-06T06:17:46.585Z,64.80
2023-01-06T06:20:13.199Z,65.46
2023-01-06T06:22:39.808Z,65.82
2023-01-06T06:25:06.614Z,66.10
2023-01-06T06:27:33.361Z,65.66
2023-01-06T06:29:59.962Z,65.93
2023-01-06T06:32:29.726Z,66.59
2023-01-06T06:34:57.809Z,66.52
2023-01-06T06:37:24.414Z,66.68
2023-01-06T06:39:51.020Z,65.77
2023-01-06T06:42:17.723Z,65.80
2023-01-06T06:44:44.252Z,66.55
2023-01-06T06:47:10.837Z,67.08
2023-01-06T06:49:37.367Z,67.32
2023-01-06T06:52:04.081Z,67.67
2023-01-06T06:54:30.639Z,67.54
2023-01-06T06:56:57.343Z,67.80
2023-01-06T06:59:23.878Z,67.38
2023-01-06T07:01:50.635Z,67.43
2023-01-06T07:04:17.320Z,67.60
2023-01-06T07:06:43.992Z,67.59
2023-01-06T07:09:10.562Z,67.73
2023-01-06T07:11:37.227Z,68.15
2023-01-06T07:14:03.800Z,67.43
2023-01-06T07:16:30.979Z,66.91
2023-01-06T07:18:57.530Z,66.94
2023-01-06T07:21:24.159Z,66.82
2023-01-06T07:23:50.743Z,66.45
2023-01-06T07:26:17.455Z,65.99
2023-01-06T07:28:44.093Z,66.21
2023-01-06T07:31:11.101Z,66.11
2023-01-06T07:33:37.693Z,66.71
2023-01-06T07:36:04.489Z,67.22
2023-01-06T07:38:31.059Z,66.40
2023-01-06T07:41:01.332Z,66.03
2023-01-06T07:43:28.318Z,66.02
2023-01-06T07:45:55.113Z,65.69
2023-01-06T07:48:21.773Z,66.19
2023-01-06T07:50:48.612Z,65.88
2023-01-06T07:53:15.267Z,66.33
2023-01-06T07:55:41.858Z,66.25
2023-01-06T07:58:09.515Z,65.26
2023-01-06T08:00:36.382Z,65.03
2023-01-06T08:03:04.126Z,65.44
2023-01-06T08:05:30.779Z,74.11
2023-01-06T08:07:57.426Z,77.08
2023-01-06T08:10:23.997Z,67.44
2023-01-06T08:12:50.592Z,67.01
2023-01-06T08:15:17.137Z,65.72
2023-01-06T08:17:43.813Z,64.64
2023-01-06T08:20:10.429Z,63.81
2023-01-06T08:22:37.031Z,65.83
2023-01-06T08:25:03.650Z,62.86
2023-01-06T08:27:30.256Z,62.57
2023-01-06T08:29:56.877Z,63.10
2023-01-06T08:32:23.503Z,64.21
2023-01-06T08:34:50.062Z,62.45
2023-01-06T08:37:16.905Z,64.69
2023-01-06T08:39:43.432Z,61.00
2023-01-06T08:42:10.050Z,61.16
2023-01-06T08:44:36.694Z,62.73
2023-01-06T08:47:03.361Z,61.46
2023-01-06T08:49:29.936Z,62.26
2023-01-06T08:51:56.569Z,60.96
2023-01-06T08:54:23.164Z,61.07
2023-01-06T08:56:49.850Z,61.07
2023-01-06T08:59:17.282Z,60.93
2023-01-06T09:01:44.613Z,60.52
2023-01-06T09:04:11.525Z,60.54
2023-01-06T09:06:39.104Z,60.62
2023-01-06T09:09:06.497Z,60.21
2023-01-06T09:11:33.158Z,60.22
2023-01-06T09:14:00.080Z,60.82
2023-01-06T09:16:26.858Z,60.16
2023-01-06T09:18:53.478Z,59.83
2023-01-06T09:21:21.278Z,60.00
2023-01-06T09:23:48.301Z,59.43
2023-01-06T09:26:15.733Z,60.09
2023-01-06T09:28:42.562Z,59.77
2023-01-06T09:31:09.414Z,60.08
2023-01-06T09:33:36.608Z,59.21
2023-01-06T09:36:03.308Z,59.30
2023-01-06T09:38:29.962Z,59.48
2023-01-06T09:40:56.597Z,59.35
2023-01-06T09:43:25.999Z,59.40
2023-01-06T09:45:55.146Z,59.12
2023-01-06T09:48:24.496Z,59.51
2023-01-06T09:50:52.397Z,59.01
2023-01-06T09:53:26.134Z,58.85
2023-01-06T09:55:58.103Z,58.68
2023-01-06T09:58:27.370Z,58.36
2023-01-06T10:00:54.811Z,58.21
2023-01-06T10:03:25.633Z,57.75
2023-01-06T10:05:58.078Z,58.01
2023-01-06T10:08:41.606Z,57.72
2023-01-06T10:11:10.886Z,57.47
2023-01-06T10:13:43.367Z,57.77
2023-01-06T10:16:15.845Z,57.14
2023-01-06T10:18:45.299Z,56.66
2023-01-06T10:21:21.862Z,56.86
2023-01-06T10:23:57.490Z,57.11
2023-01-06T10:26:40.305Z,56.57
2023-01-06T10:29:13.849Z,55.74
2023-01-06T10:31:43.285Z,55.13
2023-01-06T10:34:23.105Z,55.38
2023-01-06T10:37:09.967Z,54.98
2023-01-06T10:39:37.933Z,54.53
2023-01-06T10:42:29.493Z,54.78
2023-01-06T10:44:56.248Z,54.68
2023-01-06T10:47:28.007Z,54.77
2023-01-06T10:49:54.912Z,54.28
2023-01-06T10:52:22.648Z,54.67
2023-01-06T10:54:52.322Z,54.28
2023-01-06T10:57:32.241Z,53.83
2023-01-06T11:00:13.108Z,53.50
2023-01-06T11:02:47.379Z,53.23
2023-01-06T11:05:15.356Z,53.22
2023-01-06T11:07:49.672Z,52.80
2023-01-06T11:10:34.869Z,52.48
2023-01-06T11:13:03.071Z,52.46
2023-01-06T11:15:41.073Z,52.58
2023-01-06T11:18:22.631Z,52.25
2023-01-06T11:21:07.354Z,52.33
2023-01-06T11:23:34.711Z,51.78
2023-01-06T11:26:01.228Z,51.65
2023-01-06T11:28:27.927Z,51.44
2023-01-06T11:30:57.538Z,51.37
2023-01-06T11:33:26.095Z,51.38
2023-01-06T11:35:53.443Z,51.18
2023-01-06T11:38:21.286Z,51.25
2023-01-06T11:40:52.222Z,51.14
2023-01-06T11:43:25.362Z,50.95
2023-01-06T11:45:57.517Z,51.10
2023-01-06T11:48:32.347Z,51.22
2023-01-06T11:51:00.680Z,51.32
2023-01-06T11:53:29.395Z,50.99
2023-01-06T11:56:03.814Z,51.16
2023-01-06T11:58:49.316Z,50.77
2023-01-06T12:01:28.330Z,50.96
2023-01-06T12:03:59.209Z,50.94
2023-01-06T12:06:37.220Z,50.84
2023-01-06T12:09:14.487Z,50.58
2023-01-06T12:11:46.118Z,50.52
2023-01-06T12:14:27.903Z,50.83
2023-01-06T12:16:59.189Z,51.43
2023-01-06T12:19:32.113Z,51.40
2023-01-06T12:21:59.355Z,51.40
2023-01-06T12:24:26.482Z,51.19
2023-01-06T12:26:53.273Z,50.74
2023-01-06T12:29:20.812Z,50.42
2023-01-06T12:31:47.416Z,49.92
2023-01-06T12:34:17.887Z,50.19
2023-01-06T12:36:55.385Z,50.49
2023-01-06T12:39:33.979Z,49.99
2023-01-06T12:42:08.241Z,49.86
2023-01-06T12:44:48.082Z,49.91
2023-01-06T12:47:14.894Z,49.71
2023-01-06T12:49:45.817Z,50.36
2023-01-06T12:52:15.296Z,50.37
2023-01-06T12:54:45.672Z,49.88
2023-01-06T12:57:15.131Z,49.47
2023-01-06T13:00:04.863Z,49.43
2023-01-06T13:02:31.525Z,49.87
2023-01-06T13:04:58.029Z,51.75
2023-01-06T13:07:34.182Z,53.73
2023-01-06T13:10:00.784Z,54.83
2023-01-06T13:12:33.567Z,54.94
2023-01-06T13:15:13.148Z,54.38
2023-01-06T13:17:43.084Z,54.69
2023-01-06T13:20:28.550Z,54.82
2023-01-06T13:23:04.140Z,55.25
2023-01-06T13:25:38.438Z,55.53
2023-01-06T13:28:24.284Z,55.60
2023-01-06T13:30:56.711Z,55.29
2023-01-06T13:33:23.282Z,55.17
2023-01-06T13:35:59.119Z,55.28
2023-01-06T13:38:39.363Z,55.53
2023-01-06T13:41:11.719Z,56.30
2023-01-06T13:43:38.593Z,56.61
2023-01-06T13:46:07.638Z,56.64
2023-01-06T13:48:38.741Z,56.46
2023-01-06T13:51:07.175Z,56.61
2023-01-06T13:53:41.414Z,56.73
2023-01-06T13:56:14.095Z,57.03
2023-01-06T13:58:41.042Z,57.25
2023-01-06T14:01:09.184Z,57.44
2023-01-06T14:03:40.311Z,57.24
2023-01-06T14:06:32.830Z,57.70
2023-01-06T14:09:00.776Z,57.51
2023-01-06T14:11:27.400Z,57.12
2023-01-06T14:13:56.541Z,57.60
2023-01-06T14:16:40.886Z,57.65
2023-01-06T14:19:09.047Z,57.63
2023-01-06T14:21:35.910Z,57.58
2023-01-06T14:24:06.898Z,57.43
2023-01-06T14:26:54.647Z,57.33
2023-01-06T14:29:39.689Z,57.19
2023-01-06T14:32:32.439Z,57.03
2023-01-06T14:35:01.203Z,57.09
2023-01-06T14:37:47.597Z,57.25
2023-01-06T14:40:23.445Z,57.65
2023-01-06T14:42:50.862Z,57.80
2023-01-06T14:45:24.972Z,57.91
2023-01-06T14:47:52.835Z,57.67
2023-01-06T14:50:24.864Z,57.62
2023-01-06T14:52:54.351Z,57.36
2023-01-06T14:55:22.092Z,57.56
2023-01-06T14:57:51.276Z,57.90
2023-01-06T15:00:26.963Z,57.94
2023-01-06T15:02:54.934Z,58.57
2023-01-06T15:05:27.281Z,58.75
2023-01-06T15:07:56.706Z,58.70
2023-01-06T15:10:23.419Z,58.74
2023-01-06T15:12:57.043Z,58.50
2023-01-06T15:15:28.851Z,58.57
2023-01-06T15:17:56.610Z,58.41
2023-01-06T15:20:29.131Z,58.40
2023-01-06T15:22:55.995Z,58.68
2023-01-06T15:25:24.234Z,58.63
2023-01-06T15:27:55.076Z,58.77
2023-01-06T15:30:22.850Z,58.85
2023-01-06T15:32:50.986Z,59.05
2023-01-06T15:35:20.325Z,58.82
2023-01-06T15:37:47.383Z,58.71
2023-01-06T15:40:19.338Z,58.58
2023-01-06T15:42:46.184Z,58.57
2023-01-06T15:45:26.844Z,58.61
2023-01-06T15:47:54.636Z,58.50
2023-01-06T15:50:22.661Z,58.64
2023-01-06T15:52:53.298Z,58.88
2023-01-06T15:55:23.027Z,58.95
2023-01-06T15:57:58.464Z,59.00
2023-01-06T16:00:26.603Z,58.97
2023-01-06T16:02:53.608Z,59.13
2023-01-06T16:05:35.728Z,59.05
2023-01-06T16:08:04.223Z,59.03
2023-01-06T16:10:37.719Z,59.21
2023-01-06T16:13:10.205Z,59.03
2023-01-06T16:15:49.973Z,58.93
2023-01-06T16:18:19.837Z,58.92
2023-01-06T16:20:46.514Z,58.95
2023-01-06T16:23:33.690Z,58.88
2023-01-06T16:26:09.296Z,59.00
2023-01-06T16:28:36.645Z,58.88
2023-01-06T16:31:07.669Z,59.03
2023-01-06T16:33:36.642Z,58.98
2023-01-06T16:36:03.309Z,59.14
2023-01-06T16:38:29.941Z,59.44
2023-01-06T16:40:56.542Z,59.31
2023-01-06T16:43:23.172Z,59.30
2023-01-06T16:45:54.096Z,59.57
2023-01-06T16:48:20.777Z,59.89
2023-01-06T16:50:53.185Z,60.05
2023-01-06T16:53:20.988Z,60.04
2023-01-06T16:55:51.425Z,59.94
2023-01-06T16:58:19.457Z,59.88
2023-01-06T17:00:54.261Z,59.98
2023-01-06T17:03:25.972Z,59.83
2023-01-06T17:05:53.353Z,59.91
2023-01-06T17:08:28.961Z,59.75
2023-01-06T17:10:56.316Z,59.88
2023-01-06T17:13:34.989Z,59.81
2023-01-06T17:16:10.638Z,60.03
2023-01-06T17:18:56.216Z,59.79
2023-01-06T17:21:24.959Z,60.06
2023-01-06T17:23:57.733Z,60.36
2023-01-06T17:26:24.583Z,60.38
2023-01-06T17:28:52.497Z,60.52
2023-01-06T17:31:36.762Z,60.59
2023-01-06T17:34:10.523Z,60.99
2023-01-06T17:36:41.085Z,64.13
2023-01-06T17:39:14.197Z,61.82
2023-01-06T17:41:40.932Z,60.79
2023-01-06T17:44:15.096Z,60.77
2023-01-06T17:46:41.851Z,60.41
2023-01-06T17:49:28.318Z,60.37
2023-01-06T17:51:54.998Z,60.63
2023-01-06T17:54:40.897Z,60.56
2023-01-06T17:57:15.847Z,60.84
2023-01-06T17:59:42.850Z,61.03
2023-01-06T18:02:18.311Z,61.51
2023-01-06T18:04:46.187Z,62.45
2023-01-06T18:07:13.763Z,62.21
2023-01-06T18:09:40.375Z,61.79
2023-01-06T18:12:11.274Z,61.98
2023-01-06T18:14:40.042Z,61.99
2023-01-06T18:17:28.958Z,62.10
2023-01-06T18:19:55.727Z,62.07
2023-01-06T18:22:23.124Z,62.51
2023-01-06T18:24:51.362Z,62.70
2023-01-06T18:27:29.410Z,62.57
2023-01-06T18:29:56.730Z,62.86
2023-01-06T18:32:42.744Z,62.85
2023-01-06T18:35:11.453Z,62.94
2023-01-06T18:37:38.065Z,62.94
2023-01-06T18:40:06.807Z,63.27
2023-01-06T18:42:33.373Z,63.31
2023-01-06T18:44:59.992Z,63.58
2023-01-06T18:47:27.840Z,63.60
2023-01-06T18:49:55.835Z,63.94
2023-01-06T18:52:25.290Z,64.43
2023-01-06T18:54:54.210Z,64.42
2023-01-06T18:57:45.685Z,64.45
2023-01-06T19:00:27.544Z,64.60
2023-01-06T19:02:56.924Z,64.82
2023-01-06T19:05:23.540Z,65.02
2023-01-06T19:07:51.564Z,65.10
2023-01-06T19:10:26.522Z,65.42
2023-01-06T19:12:58.257Z,65.69
2023-01-06T19:15:26.025Z,65.29
2023-01-06T19:17:54.006Z,65.10
2023-01-06T19:20:35.179Z,65.10
2023-01-06T19:23:10.966Z,64.84
2023-01-06T19:25:40.684Z,64.60
2023-01-06T19:28:33.787Z,64.48
2023-01-06T19:31:04.241Z,64.50
2023-01-06T19:33:33.559Z,64.27
2023-01-06T19:36:06.417Z,64.19
2023-01-06T19:38:38.622Z,64.39
2023-01-06T19:41:09.100Z,64.47
2023-01-06T19:43:36.239Z,64.54
2023-01-06T19:46:04.744Z,64.42
2023-01-06T19:48:38.425Z,64.78
2023-01-06T19:51:23.700Z,65.36
2023-01-06T19:54:13.432Z,65.33
2023-01-06T19:56:41.489Z,65.60
2023-01-06T19:59:31.339Z,65.46
2023-01-06T20:02:17.588Z,65.50
2023-01-06T20:04:44.276Z,65.89
2023-01-06T20:07:10.860Z,65.85
2023-01-06T20:09:37.677Z,66.17
2023-01-06T20:12:04.539Z,66.55
2023-01-06T20:14:31.361Z,66.43
2023-01-06T20:16:59.466Z,66.24
2023-01-06T20:19:26.142Z,66.05
2023-01-06T20:21:52.655Z,65.86
2023-01-06T20:24:19.300Z,66.06
2023-01-06T20:26:45.867Z,66.29
2023-01-06T20:29:12.611Z,66.24
2023-01-06T20:31:39.380Z,66.33
2023-01-06T20:34:06.040Z,66.70
2023-01-06T20:36:32.569Z,66.74
2023-01-06T20:38:59.242Z,66.79
2023-01-06T20:41:25.837Z,66.99
2023-01-06T20:43:52.474Z,66.84
2023-01-06T20:46:19.138Z,67.20
2023-01-06T20:48:47.714Z,67.34
2023-01-06T20:51:14.333Z,67.10
2023-01-06T20:53:40.967Z,67.59
2023-01-06T20:56:08.038Z,67.25
2023-01-06T20:58:34.588Z,67.13
2023-01-06T21:01:01.192Z,67.04
2023-01-06T21:03:27.784Z,66.76
2023-01-06T21:05:54.312Z,66.39
2023-01-06T21:08:20.982Z,66.42
2023-01-06T21:10:47.565Z,66.79
2023-01-06T21:13:14.143Z,67.24
2023-01-06T21:15:40.703Z,66.98
2023-01-06T21:18:07.305Z,67.16
2023-01-06T21:20:33.864Z,67.26
2023-01-06T21:23:00.490Z,67.35
2023-01-06T21:25:27.106Z,67.64
2023-01-06T21:27:53.707Z,68.22
2023-01-06T21:30:20.355Z,68.85
2023-01-06T21:32:47.061Z,68.90
2023-01-06T21:35:13.759Z,68.22
2023-01-06T21:37:40.349Z,68.22
2023-01-06T21:40:08.576Z,68.01
2023-01-06T21:42:54.490Z,68.01
2023-01-06T21:45:21.107Z,67.82
2023-01-06T21:47:48.032Z,67.49
2023-01-06T21:50:14.712Z,67.73
2023-01-06T21:52:41.394Z,67.46
2023-01-06T21:55:08.433Z,67.45
2023-01-06T21:57:36.132Z,67.27
2023-01-06T22:00:04.304Z,67.19
2023-01-06T22:02:39.465Z,67.55
2023-01-06T22:05:06.468Z,67.56
2023-01-06T22:07:34.891Z,67.41
2023-01-06T22:10:03.400Z,67.37
2023-01-06T22:12:31.853Z,67.62
2023-01-06T22:14:58.431Z,67.66
2023-01-06T22:17:25.308Z,67.43
2023-01-06T22:19:52.807Z,67.51
2023-01-06T22:22:21.692Z,67.14
2023-01-06T22:24:49.423Z,67.56
2023-01-06T22:27:16.025Z,67.30
2023-01-06T22:29:42.571Z,67.33
2023-01-06T22:32:09.167Z,66.98
2023-01-06T22:34:37.297Z,67.00
2023-01-06T22:39:45.516Z,67.74
2023-01-06T22:42:12.201Z,68.02
2023-01-06T22:44:38.782Z,68.55
2023-01-06T22:47:05.445Z,68.75
2023-01-06T22:49:32.095Z,68.72
2023-01-06T22:51:58.639Z,69.02
2023-01-06T22:54:25.361Z,68.79
2023-01-06T22:56:51.905Z,68.60
2023-01-06T22:59:18.488Z,68.71
2023-01-06T23:01:45.576Z,69.34
2023-01-06T23:04:13.694Z,68.37
2023-01-06T23:06:40.368Z,68.20
2023-01-06T23:09:06.999Z,68.34
2023-01-06T23:11:35.372Z,68.28
2023-01-06T23:14:01.950Z,68.33
2023-01-06T23:16:30.249Z,68.46
2023-01-06T23:18:57.084Z,68.46
2023-01-06T23:21:24.536Z,68.79
2023-01-06T23:23:51.817Z,69.40
2023-01-06T23:26:20.141Z,69.24
2023-01-06T23:28:46.705Z,69.42
2023-01-06T23:31:17.692Z,69.64
2023-01-06T23:33:45.655Z,69.39
2023-01-06T23:36:13.406Z,69.44
2023-01-06T23:38:40.357Z,69.66
2023-01-06T23:41:08.587Z,70.04
2023-01-06T23:43:35.714Z,70.25
2023-01-06T23:46:10.063Z,70.68
2023-01-06T23:48:37.224Z,70.33
2023-01-06T23:51:04.480Z,70.91
2023-01-06T23:53:31.717Z,70.35
2023-01-06T23:56:02.491Z,70.24
2023-01-06T23:58:30.273Z,70.55
